Time;durP1;ratioP1;P1;durP2;ratioP2;P2;SDS_P1;SDS_P2;PMS_P1;PMS_P2;Temp;Humidity;BMP_temperature;BMP_pressure;BME280_temperature;BME280_humidity;BME280_pressure;Samples;Min_cycle;Max_cycle;Signal;HPM_P1;HPM_P2
2022/12/24 00:00:18;;;;;;;1.87;0.70;;;;;;;;;;20953643;28;20209;-87
2022/12/24 00:10:20;;;;;;;1.90;0.50;;;;;;;;;;20965094;28;20611;-86
2022/12/24 00:20:23;;;;;;;2.47;0.87;;;;;;;;;;20917132;28;20647;-86
2022/12/24 00:30:25;;;;;;;1.17;0.47;;;;;;;;;;20984242;28;20798;-88
2022/12/24 00:40:27;;;;;;;2.27;0.60;;;;;;;;;;21011981;28;20210;-86
2022/12/24 00:50:29;;;;;;;1.43;0.70;;;;;;;;;;20998830;28;20237;-87
2022/12/24 01:00:31;;;;;;;2.83;0.73;;;;;;;;;;21000706;28;20244;-86
2022/12/24 01:10:33;;;;;;;1.53;0.90;;;;;;;;;;20965285;28;20278;-85
2022/12/24 01:20:35;;;;;;;0.50;0.33;;;;;;;;;;20964981;28;20210;-86
2022/12/24 01:30:37;;;;;;;0.97;0.50;;;;;;;;;;20980497;28;20237;-87
2022/12/24 01:51:12;;;;;;;4.50;0.93;;;;;;;;;;20994849;28;20233;-87
2022/12/24 02:01:14;;;;;;;5.43;1.60;;;;;;;;;;20960339;28;20243;-87
2022/12/24 02:11:18;;;;;;;4.00;0.70;;;;;;;;;;20944249;28;20232;-87
2022/12/24 02:21:29;;;;;;;1.63;0.60;;;;;;;;;;20993056;28;20212;-87
2022/12/24 02:31:37;;;;;;;1.70;0.63;;;;;;;;;;20958985;28;20698;-87
2022/12/24 02:52:02;;;;;;;1.60;0.37;;;;;;;;;;21018149;28;20228;-86
2022/12/24 03:02:13;;;;;;;4.90;1.13;;;;;;;;;;21017629;27;20217;-88
2022/12/24 03:12:18;;;;;;;2.37;0.60;;;;;;;;;;21019835;28;20786;-87
2022/12/24 03:22:22;;;;;;;1.73;0.57;;;;;;;;;;21018677;28;20197;-87
2022/12/24 03:32:27;;;;;;;4.97;1.17;;;;;;;;;;21015734;28;20282;-87
2022/12/24 03:42:30;;;;;;;2.47;0.67;;;;;;;;;;20999049;28;20269;-87
2022/12/24 03:52:32;;;;;;;3.87;1.00;;;;;;;;;;21016739;28;20229;-87
2022/12/24 04:02:33;;;;;;;4.40;1.07;;;;;;;;;;20999125;28;20562;-86
2022/12/24 04:12:35;;;;;;;1.57;0.93;;;;;;;;;;20967273;28;20243;-86
2022/12/24 04:22:37;;;;;;;6.00;0.93;;;;;;;;;;20984238;28;20278;-88
2022/12/24 04:32:39;;;;;;;2.10;0.67;;;;;;;;;;21000210;28;20237;-85
2022/12/24 04:42:41;;;;;;;3.30;1.57;;;;;;;;;;20981707;28;20523;-86
2022/12/24 04:52:43;;;;;;;5.50;1.07;;;;;;;;;;20963934;28;20237;-84
2022/12/24 05:02:45;;;;;;;4.70;0.67;;;;;;;;;;20945645;28;20755;-84
2022/12/24 05:12:46;;;;;;;5.20;1.33;;;;;;;;;;20945350;28;20584;-85
2022/12/24 05:33:08;;;;;;;3.60;0.93;;;;;;;;;;20882697;28;20710;-86
2022/12/24 05:43:10;;;;;;;3.53;1.23;;;;;;;;;;20893133;28;20271;-85
2022/12/24 05:53:12;;;;;;;3.23;1.03;;;;;;;;;;20862983;28;20226;-88
2022/12/24 06:03:13;;;;;;;1.67;0.80;;;;;;;;;;20876218;28;20279;-87
2022/12/24 06:13:16;;;;;;;1.70;0.83;;;;;;;;;;20892329;28;20242;-88
2022/12/24 06:23:22;;;;;;;2.50;1.00;;;;;;;;;;20892245;28;20752;-88
2022/12/24 06:33:24;;;;;;;4.03;1.37;;;;;;;;;;20892212;28;20284;-86
2022/12/24 06:43:26;;;;;;;3.10;1.60;;;;;;;;;;20908483;28;20210;-86
2022/12/24 06:53:29;;;;;;;3.97;0.90;;;;;;;;;;20889025;28;20233;-87
2022/12/24 07:03:31;;;;;;;5.70;1.13;;;;;;;;;;20890031;28;20587;-85
2022/12/24 07:13:33;;;;;;;7.57;1.10;;;;;;;;;;20859152;28;20226;-85
2022/12/24 07:23:35;;;;;;;3.57;0.93;;;;;;;;;;20977486;28;20686;-86
2022/12/24 07:33:36;;;;;;;5.00;1.60;;;;;;;;;;20977486;28;20225;-86
2022/12/24 07:43:39;;;;;;;3.43;1.37;;;;;;;;;;20991798;28;20218;-84
2022/12/24 07:53:46;;;;;;;6.17;1.80;;;;;;;;;;21011783;28;20242;-84
2022/12/24 08:03:50;;;;;;;6.10;2.13;;;;;;;;;;21008852;28;20702;-85
2022/12/24 08:13:51;;;;;;;5.30;2.70;;;;;;;;;;20969131;28;20255;-85
2022/12/24 08:23:53;;;;;;;3.90;1.50;;;;;;;;;;21003374;28;20263;-85
2022/12/24 08:33:55;;;;;;;4.00;1.07;;;;;;;;;;20969590;28;20290;-85
2022/12/24 08:43:56;;;;;;;3.10;1.30;;;;;;;;;;20987019;28;20213;-86
2022/12/24 08:53:58;;;;;;;5.17;1.00;;;;;;;;;;20956499;28;20314;-86
2022/12/24 09:04:01;;;;;;;6.90;1.77;;;;;;;;;;20898195;28;20647;-86
2022/12/24 09:14:03;;;;;;;4.63;1.40;;;;;;;;;;20935053;28;20258;-86
2022/12/24 09:24:09;;;;;;;3.73;1.43;;;;;;;;;;21018463;28;20534;-86
2022/12/24 09:34:11;;;;;;;5.60;1.63;;;;;;;;;;20982884;28;20275;-86
2022/12/24 09:44:28;;;;;;;5.23;1.27;;;;;;;;;;20926345;28;20674;-87
2022/12/24 09:54:44;;;;;;;2.93;1.33;;;;;;;;;;20979849;28;20221;-86
2022/12/24 10:04:47;;;;;;;5.80;1.17;;;;;;;;;;20999350;28;20241;-87
2022/12/24 10:15:12;;;;;;;2.23;1.00;;;;;;;;;;20988751;28;20229;-84
2022/12/24 10:25:33;;;;;;;4.00;1.60;;;;;;;;;;20970484;28;20848;-83
2022/12/24 10:35:39;;;;;;;4.43;1.30;;;;;;;;;;20955176;28;20229;-85
2022/12/24 10:45:43;;;;;;;4.07;1.07;;;;;;;;;;20940809;28;20274;-84
2022/12/24 10:55:47;;;;;;;4.70;1.23;;;;;;;;;;20997731;28;20217;-85
2022/12/24 11:06:00;;;;;;;2.03;1.20;;;;;;;;;;20974917;28;20254;-85
2022/12/24 11:16:05;;;;;;;2.70;0.87;;;;;;;;;;20922224;28;20263;-86
2022/12/24 11:26:07;;;;;;;2.60;1.00;;;;;;;;;;20910247;28;20601;-86
2022/12/24 11:36:11;;;;;;;5.33;0.97;;;;;;;;;;20909533;28;20251;-85
2022/12/24 11:46:15;;;;;;;3.47;1.20;;;;;;;;;;20941506;28;20221;-86
2022/12/24 11:56:33;;;;;;;16.53;2.83;;;;;;;;;;20928174;28;20648;-86
2022/12/24 12:06:38;;;;;;;3.17;1.40;;;;;;;;;;20922333;28;20226;-86
2022/12/24 12:17:02;;;;;;;3.87;1.27;;;;;;;;;;21004391;28;20698;-86
2022/12/24 12:27:19;;;;;;;2.70;1.10;;;;;;;;;;20909999;28;20589;-86
2022/12/24 12:37:26;;;;;;;3.13;1.10;;;;;;;;;;20982003;28;20751;-86
2022/12/24 12:47:42;;;;;;;3.97;0.90;;;;;;;;;;20979604;28;20237;-86
2022/12/24 12:57:46;;;;;;;2.47;0.80;;;;;;;;;;20953752;28;20201;-86
2022/12/24 13:07:56;;;;;;;6.07;1.50;;;;;;;;;;20968622;28;20233;-86
2022/12/24 13:18:11;;;;;;;4.13;1.20;;;;;;;;;;20985354;28;20273;-86
2022/12/24 13:28:22;;;;;;;2.13;1.00;;;;;;;;;;20958482;28;20237;-88
2022/12/24 13:38:26;;;;;;;6.47;0.90;;;;;;;;;;20884454;28;20577;-87
2022/12/24 13:48:29;;;;;;;2.27;0.93;;;;;;;;;;20936929;28;20247;-88
2022/12/24 13:58:33;;;;;;;2.50;0.60;;;;;;;;;;20969091;28;20619;-88
2022/12/24 14:08:55;;;;;;;4.60;1.03;;;;;;;;;;20966782;28;20639;-88
2022/12/24 14:19:15;;;;;;;1.13;0.60;;;;;;;;;;20980503;28;20282;-86
2022/12/24 14:29:22;;;;;;;3.70;1.20;;;;;;;;;;20996141;28;20233;-87
2022/12/24 14:39:30;;;;;;;3.37;1.20;;;;;;;;;;20963210;28;20201;-87
2022/12/24 14:49:51;;;;;;;3.17;1.17;;;;;;;;;;21000439;28;20225;-86
2022/12/24 14:59:57;;;;;;;5.87;1.10;;;;;;;;;;20980102;28;20674;-87
2022/12/24 15:10:01;;;;;;;2.53;0.90;;;;;;;;;;21023782;28;20241;-87
2022/12/24 15:20:03;;;;;;;7.17;1.37;;;;;;;;;;20993260;28;20217;-86
2022/12/24 15:30:11;;;;;;;50.97;23.33;;;;;;;;;;20933458;28;20225;-88
2022/12/24 15:40:20;;;;;;;5.07;2.13;;;;;;;;;;20957270;28;20675;-88
2022/12/24 15:50:22;;;;;;;6.97;2.27;;;;;;;;;;20970037;28;20271;-88
2022/12/24 16:00:29;;;;;;;11.47;2.33;;;;;;;;;;21003421;28;20205;-87
2022/12/24 16:10:41;;;;;;;2.87;1.20;;;;;;;;;;20987505;28;20266;-88
2022/12/24 16:20:49;;;;;;;5.27;1.60;;;;;;;;;;21009090;28;20748;-88
2022/12/24 16:30:54;;;;;;;6.43;1.57;;;;;;;;;;20925411;28;20256;-88
2022/12/24 16:40:56;;;;;;;4.20;1.33;;;;;;;;;;20894404;28;20209;-88
2022/12/24 16:50:59;;;;;;;3.53;1.10;;;;;;;;;;21006621;28;20225;-89
2022/12/24 17:01:08;;;;;;;3.10;1.10;;;;;;;;;;20984998;28;20209;-88
2022/12/24 17:11:10;;;;;;;3.17;1.10;;;;;;;;;;20983120;28;20282;-88
2022/12/24 17:21:16;;;;;;;4.80;1.57;;;;;;;;;;20958204;28;20209;-88
2022/12/24 17:54:16;;;;;;;4.37;0.97;;;;;;;;;;20994716;28;20697;-89
2022/12/24 18:05:13;;;;;;;5.37;1.50;;;;;;;;;;20990249;28;20354;-88
2022/12/24 18:15:18;;;;;;;3.80;1.27;;;;;;;;;;20989980;22;20295;-65
2022/12/24 18:25:20;;;;;;;1.93;1.03;;;10.90;99.90;;;;;;21019681;28;20208;-66
2022/12/24 18:35:23;;;;;;;4.33;1.70;;;;;;;;;;21035586;28;20236;-65
2022/12/24 18:45:25;;;;;;;4.63;1.20;;;;;;;;;;21019179;28;20281;-65
2022/12/24 18:55:28;;;;;;;2.23;0.90;;;;;;;;;;21018602;28;20237;-66
2022/12/24 19:05:35;;;;;;;7.80;1.60;;;;;;;;;;20996953;28;20510;-65
2022/12/24 19:15:42;;;;;;;2.60;1.00;;;;;;;;;;20993565;28;20219;-66
2022/12/24 19:25:49;;;;;;;7.07;2.00;;;;;;;;;;20983587;28;20283;-65
2022/12/24 19:35:50;;;;;;;7.50;1.47;;;;;;;;;;20973415;28;20220;-66
2022/12/24 19:45:56;;;;;;;4.30;1.60;;;;;;;;;;21012219;28;20209;-65
2022/12/24 19:55:58;;;;;;;5.83;2.03;;;;;;;;;;21047031;28;20237;-65
2022/12/24 20:06:00;;;;;;;3.43;2.30;;;;;;;;;;20962778;28;20213;-65
2022/12/24 20:16:13;;;;;;;3.60;1.47;;;;;;;;;;20984303;28;20220;-65
2022/12/24 20:26:15;;;;;;;3.40;1.67;;;;;;;;;;21008678;28;20200;-65
2022/12/24 20:36:19;;;;;;;4.67;1.60;;;10.40;99.90;;;;;;21001719;28;20291;-65
2022/12/24 20:46:22;;;;;;;4.63;1.63;;;10.30;99.90;;;;;;20996475;28;20219;-65
2022/12/24 20:56:25;;;;;;;6.33;2.47;;;;;;;;;;21058849;28;20244;-66
2022/12/24 21:06:27;;;;;;;8.10;2.27;;;;;;;;;;21024246;28;20273;-65
2022/12/24 21:16:31;;;;;;;3.70;1.87;;;;;;;;;;20989329;28;20225;-66
2022/12/24 21:26:33;;;;;;;4.80;2.30;;;;;;;;;;20983367;22;20590;-68
2022/12/24 21:36:35;;;;;;;5.10;1.73;;;;;;;;;;20939101;28;20266;-70
2022/12/24 21:46:37;;;;;;;4.80;2.40;;;;;;;;;;20921652;28;20680;-69
2022/12/24 22:17:22;;;;;;;2.70;1.27;;;10.20;99.90;;;;;;20954908;28;20274;-69
2022/12/24 22:27:24;;;;;;;5.47;1.50;;;;;;;;;;20935951;28;20242;-69
2022/12/24 22:37:26;;;;;;;3.07;1.43;;;;;;;;;;20972413;28;20204;-69
2022/12/24 22:47:28;;;;;;;4.23;1.73;;;;;;;;;;21026230;28;20683;-69
2022/12/24 22:57:31;;;;;;;2.20;1.20;;;;;;;;;;21064853;28;20213;-69
2022/12/24 23:07:32;;;;;;;2.93;1.30;;;;;;;;;;20984855;28;20574;-69
2022/12/24 23:17:35;;;;;;;3.50;2.03;;;;;;;;;;20966750;28;20227;-70
2022/12/24 23:27:37;;;;;;;2.20;1.53;;;;;;;;;;20966364;28;20209;-70
2022/12/24 23:37:39;;;;;;;2.53;1.40;;;;;;;;;;20949001;28;20189;-70
2022/12/24 23:47:42;;;;;;;2.50;1.20;;;;;;;;;;20965249;28;20861;-73
2022/12/24 23:57:45;;;;;;;2.30;1.40;;;;;;;;;;20981289;28;20260;-70
